ADDS METAR Data INFO
IDs: Format: Raw Decoded Include TAF

Data at: 0855 UTC 22 Feb 2018

K28J 220835Z AUTO 00000KT 1/4SM FG BKN040 16/16 A3039 RMK AO2
K28J 220815Z AUTO 00000KT 1/4SM FG VV002 17/17 A3039 RMK AO2
K28J 220755Z AUTO 00000KT 1/4SM FG VV002 17/17 A3040 RMK AO2
K28J 220735Z AUTO 00000KT 1/4SM FG VV002 17/17 A3040 RMK AO2 VSBY M1/4V5
K28J 220715Z AUTO 00000KT 1/2SM FG BKN041 19/19 A3040 RMK AO2
K28J 220655Z AUTO 00000KT 5SM BR SCT039 19/19 A3040 RMK AO2
K28J 220635Z AUTO 12003KT 8SM BKN036 19/19 A3041 RMK AO2
K28J 220615Z AUTO 14003KT 9SM BKN033 BKN041 20/20 A3041 RMK AO2
K28J 220555Z AUTO 14005KT 9SM FEW021 SCT029 BKN036 20/20 A3041 RMK AO2
K28J 220535Z AUTO 14005KT 10SM FEW021 FEW035 SCT044 20/20 A3041 RMK AO2
K28J 220515Z AUTO 13006KT 10SM FEW022 20/20 A3040 RMK AO2
K28J 220455Z AUTO 14006KT 10SM CLR 20/20 A3041 RMK AO2
K28J 220435Z AUTO 14007KT 7SM CLR 21/21 A3041 RMK AO2
K28J 220415Z AUTO 14009KT 10SM CLR 21/21 A3041 RMK AO2
K28J 220355Z AUTO 13008KT 10SM CLR 21/21 A3041 RMK AO2
K28J 220035Z AUTO 12009KT 10SM OVC041 23/20 A3039 RMK AO2
K28J 220015Z AUTO 12006KT 10SM OVC039 22/19 A3039 RMK AO2
K28J 212355Z AUTO 12007KT 10SM OVC039 23/19 A3038 RMK AO2
K28J 212335Z AUTO 12009G14KT 10SM SCT037 23/19 A3037 RMK AO2
K28J 212315Z AUTO 12011KT 10SM CLR 24/18 A3037 RMK AO2
K28J 212255Z AUTO 12011G14KT 10SM CLR 25/18 A3036 RMK AO2
K28J 212235Z AUTO 12011G15KT 10SM CLR 25/18 A3036 RMK AO2
K28J 212215Z AUTO 11012G16KT 10SM CLR 27/19 A3035 RMK AO2
K28J 212155Z AUTO 13010G15KT 10SM CLR 27/19 A3034 RMK AO2
K28J 212135Z AUTO 11011G15KT 10SM FEW055 27/19 A3034 RMK AO2
K28J 212115Z AUTO 11011KT 10SM FEW055 27/19 A3034 RMK AO2
K28J 212055Z AUTO 11011KT 10SM CLR 27/18 A3034 RMK AO2
K28J 212035Z AUTO 13011KT 10SM FEW048 28/18 A3034 RMK AO2
K28J 212015Z AUTO 13011KT 10SM BKN050 28/18 A3035 RMK AO2
K28J 211955Z AUTO 12011G14KT 10SM BKN050 28/18 A3035 RMK AO2
K28J 211935Z AUTO 14008KT 10SM SCT050 29/18 A3036 RMK AO2
K28J 211915Z AUTO 13009KT 10SM SCT050 28/17 A3036 RMK AO2
K28J 211855Z AUTO 11010KT 10SM FEW050 28/17 A3037 RMK AO2
K28J 211835Z AUTO 14006KT 10SM BKN048 29/18 A3037 RMK AO2
K28J 211815Z AUTO 10010KT 10SM OVC046 27/18 A3038 RMK AO2
K28J 211755Z AUTO 12009KT 10SM BKN044 OVC050 28/18 A3039 RMK AO2
K28J 211735Z AUTO 10007KT 10SM BKN042 BKN048 27/18 A3040 RMK AO2
K28J 211715Z AUTO 10008KT 090V150 10SM SCT039 BKN047 28/19 A3041 RMK AO2
K28J 211655Z AUTO 13008KT 10SM SCT033 BKN047 27/19 A3042 RMK AO2
K28J 211635Z AUTO 11009KT 10SM BKN033 BKN041 28/19 A3042 RMK AO2
K28J 211615Z AUTO 17006KT 10SM FEW030 FEW036 27/19 A3043 RMK AO2
K28J 211555Z AUTO 13008KT 10SM FEW022 27/20 A3044 RMK AO2
K28J 211535Z AUTO 14010KT 10SM FEW022 26/20 A3044 RMK AO2
K28J 211515Z AUTO 15011G15KT 10SM SCT019 25/21 A3044 RMK AO2
K28J 211455Z AUTO 17009G16KT 10SM BKN017 24/22 A3044 RMK AO2
K28J 211435Z AUTO 17009KT 10SM BKN013 24/23 A3044 RMK AO2
K28J 211415Z AUTO 17007KT 120V190 8SM SCT013 BKN018 23/23 A3043 RMK AO2
K28J 211355Z AUTO 14004KT 10SM FEW006 BKN015 23/23 A3043 RMK AO2
K28J 211335Z AUTO 14005KT 8SM BKN006 OVC015 22/22 A3042 RMK AO2
K28J 211315Z AUTO 12005KT 7SM OVC005 21/21 A3042 RMK AO2
K28J 211255Z AUTO 00000KT 6SM BR BKN005 20/20 A3041 RMK AO2
K28J 211235Z AUTO 00000KT 1/4SM FG BKN005 BKN017 19/19 A3041 RMK AO2
K28J 210735Z AUTO 13005KT 10SM OVC016 20/20 A3037 RMK AO2
K28J 210715Z AUTO 13004KT 10SM BKN016 20/20 A3037 RMK AO2
K28J 210655Z AUTO 13005KT 10SM BKN014 21/21 A3038 RMK AO2
K28J 210635Z AUTO 13005KT 10SM BKN014 BKN019 BKN065 21/21 A3038 RMK AO2
K28J 210615Z AUTO 13005KT 10SM SCT017 BKN030 BKN065 22/22 A3039 RMK AO2
K28J 210555Z AUTO 14007KT 10SM FEW015 BKN065 22/22 A3038 RMK AO2